createdAt,value
2019-03-27T00:00:43.803Z,9.78
2019-03-27T00:01:43.796Z,9.83
2019-03-27T00:02:43.782Z,9.67
2019-03-27T00:03:43.769Z,9.75
2019-03-27T00:04:43.763Z,9.70
2019-03-27T00:05:43.746Z,9.75
2019-03-27T00:06:43.735Z,9.66
2019-03-27T00:07:43.724Z,9.59
2019-03-27T00:08:43.719Z,9.63
2019-03-27T00:09:43.702Z,9.73
2019-03-27T00:10:43.694Z,9.63
2019-03-27T00:11:43.680Z,9.66
2019-03-27T00:12:43.671Z,9.73
2019-03-27T00:13:43.674Z,9.77
2019-03-27T00:14:43.651Z,9.70
2019-03-27T00:15:43.639Z,9.69
2019-03-27T00:16:43.628Z,9.65
2019-03-27T00:17:43.614Z,9.57
2019-03-27T00:18:43.609Z,9.59
2019-03-27T00:19:43.599Z,9.63
2019-03-27T00:20:43.582Z,9.75
2019-03-27T00:21:43.571Z,9.77
2019-03-27T00:22:43.559Z,9.80
2019-03-27T00:23:43.567Z,9.83
2019-03-27T00:24:43.537Z,9.81
2019-03-27T00:25:43.526Z,9.67
2019-03-27T00:26:43.520Z,9.73
2019-03-27T00:27:43.507Z,9.80
2019-03-27T00:28:43.492Z,9.66
2019-03-27T00:29:43.480Z,9.51
2019-03-27T00:30:43.471Z,9.59
2019-03-27T00:31:43.462Z,9.62
2019-03-27T00:32:43.449Z,9.60
2019-03-27T00:33:43.437Z,9.66
2019-03-27T00:34:43.427Z,9.72
2019-03-27T00:35:43.418Z,9.63
2019-03-27T00:36:43.407Z,9.60
2019-03-27T00:37:43.398Z,9.50
2019-03-27T00:38:43.385Z,9.52
2019-03-27T00:39:43.376Z,9.54
2019-03-27T00:40:43.363Z,9.52
2019-03-27T00:41:43.352Z,9.69
2019-03-27T00:42:43.340Z,9.54
2019-03-27T00:43:43.331Z,9.60
2019-03-27T00:44:43.321Z,9.52
2019-03-27T00:45:43.314Z,9.55
2019-03-27T00:46:43.300Z,9.51
2019-03-27T00:47:43.289Z,9.57
2019-03-27T00:48:43.275Z,9.42
2019-03-27T00:49:43.284Z,9.42
2019-03-27T00:50:43.251Z,9.33
2019-03-27T00:51:43.243Z,9.24
2019-03-27T00:52:43.230Z,9.04
2019-03-27T00:53:43.220Z,9.15
2019-03-27T00:54:43.207Z,9.03
2019-03-27T00:55:43.201Z,9.04
2019-03-27T00:56:43.187Z,9.18
2019-03-27T00:57:43.173Z,9.32
2019-03-27T00:58:43.167Z,9.32
2019-03-27T00:59:43.153Z,9.19
2019-03-27T01:00:43.144Z,9.19
2019-03-27T01:01:43.137Z,9.27
2019-03-27T01:02:43.122Z,9.33
2019-03-27T01:03:43.110Z,9.24
2019-03-27T01:04:43.099Z,9.40
2019-03-27T01:05:43.093Z,9.44
2019-03-27T01:06:43.080Z,9.41
2019-03-27T01:07:43.068Z,9.33
2019-03-27T01:08:43.138Z,9.22
2019-03-27T01:09:43.051Z,9.29
2019-03-27T01:10:43.034Z,9.18
2019-03-27T01:11:43.023Z,9.15
2019-03-27T01:12:43.018Z,9.14
2019-03-27T01:13:43.007Z,9.09
2019-03-27T01:14:42.989Z,8.99
2019-03-27T01:15:42.981Z,8.95
2019-03-27T01:16:42.971Z,8.86
2019-03-27T01:17:42.958Z,8.92
2019-03-27T01:18:42.943Z,8.88
2019-03-27T01:19:42.934Z,8.98
2019-03-27T01:20:42.922Z,9.12
2019-03-27T01:21:42.912Z,9.16
2019-03-27T01:22:42.900Z,8.98
2019-03-27T01:23:42.892Z,9.04
2019-03-27T01:24:42.879Z,8.86
2019-03-27T01:25:42.867Z,8.98
2019-03-27T01:26:42.859Z,8.99
2019-03-27T01:27:42.850Z,9.01
2019-03-27T01:28:42.842Z,9.04
2019-03-27T01:29:42.823Z,8.96
2019-03-27T01:30:42.815Z,8.96
2019-03-27T01:31:42.801Z,8.93
2019-03-27T01:32:42.864Z,8.93
2019-03-27T01:33:42.784Z,8.93
2019-03-27T01:34:42.772Z,8.93
2019-03-27T01:35:42.766Z,9.04
2019-03-27T01:36:42.753Z,9.11
2019-03-27T01:37:42.741Z,9.14
2019-03-27T01:38:42.724Z,8.98
2019-03-27T01:39:42.720Z,8.96
2019-03-27T01:40:42.707Z,8.89
2019-03-27T01:41:42.694Z,8.93
2019-03-27T01:42:42.683Z,9.01
2019-03-27T01:43:42.670Z,9.01
2019-03-27T01:44:42.660Z,8.89
2019-03-27T01:45:52.507Z,8.96
2019-03-27T01:46:43.639Z,8.96
2019-03-27T01:47:42.634Z,8.92
2019-03-27T01:48:42.616Z,8.85
2019-03-27T01:49:42.606Z,8.83
2019-03-27T01:50:42.595Z,8.86
2019-03-27T01:51:42.583Z,8.85
2019-03-27T01:52:42.573Z,8.99
2019-03-27T01:53:42.562Z,8.90
2019-03-27T01:54:42.548Z,8.98
2019-03-27T01:55:42.542Z,8.98
2019-03-27T01:56:42.527Z,9.06
2019-03-27T01:57:42.530Z,8.96
2019-03-27T01:58:42.514Z,8.88
2019-03-27T01:59:42.494Z,8.81
2019-03-27T02:00:42.490Z,8.85
2019-03-27T02:01:42.471Z,8.81
2019-03-27T02:02:42.466Z,8.72
2019-03-27T02:03:42.456Z,8.68
2019-03-27T02:04:42.441Z,8.74
2019-03-27T02:05:42.429Z,8.80
2019-03-27T02:06:42.428Z,8.68
2019-03-27T02:07:42.407Z,8.80
2019-03-27T02:08:42.396Z,8.81
2019-03-27T02:09:42.387Z,8.72
2019-03-27T02:10:42.373Z,8.81
2019-03-27T02:11:42.362Z,8.83
2019-03-27T02:12:42.360Z,8.65
2019-03-27T02:13:42.348Z,8.57
2019-03-27T02:14:42.333Z,8.56
2019-03-27T02:15:42.319Z,8.52
2019-03-27T02:16:42.308Z,8.65
2019-03-27T02:17:42.304Z,8.60
2019-03-27T02:18:42.283Z,8.63
2019-03-27T02:19:42.274Z,8.59
2019-03-27T02:20:42.264Z,8.57
2019-03-27T02:21:42.281Z,8.57
2019-03-27T02:22:42.245Z,8.50
2019-03-27T02:23:42.234Z,8.57
2019-03-27T02:24:42.222Z,8.63
2019-03-27T02:25:42.208Z,8.57
2019-03-27T02:26:42.199Z,8.56
2019-03-27T02:27:42.187Z,8.67
2019-03-27T02:28:42.176Z,8.70
2019-03-27T02:29:42.165Z,8.60
2019-03-27T02:30:42.156Z,8.59
2019-03-27T02:31:42.151Z,8.57
2019-03-27T02:32:42.175Z,8.57
2019-03-27T02:33:42.122Z,8.60
2019-03-27T02:34:42.119Z,8.52
2019-03-27T02:35:42.102Z,8.39
2019-03-27T02:36:42.090Z,8.42
2019-03-27T02:37:42.084Z,8.28
2019-03-27T02:38:42.071Z,8.50
2019-03-27T02:39:42.058Z,8.56
2019-03-27T02:40:42.044Z,8.68
2019-03-27T02:41:42.036Z,8.68
2019-03-27T02:42:42.020Z,8.67
2019-03-27T02:43:42.018Z,8.68
2019-03-27T02:44:42.000Z,8.85
2019-03-27T02:45:41.987Z,8.72
2019-03-27T02:46:41.975Z,8.71
2019-03-27T02:47:41.968Z,8.68
2019-03-27T02:48:41.958Z,8.53
2019-03-27T02:49:41.941Z,8.50
2019-03-27T02:50:41.934Z,8.49
2019-03-27T02:51:41.930Z,8.46
2019-03-27T02:52:41.910Z,8.52
2019-03-27T02:53:41.902Z,8.59
2019-03-27T02:54:41.890Z,8.59
2019-03-27T02:55:41.877Z,8.62
2019-03-27T02:56:41.864Z,8.56
2019-03-27T02:57:41.855Z,8.55
2019-03-27T02:58:41.849Z,8.56
2019-03-27T02:59:41.918Z,8.57
2019-03-27T03:00:41.822Z,8.49
2019-03-27T03:01:41.813Z,8.47
2019-03-27T03:02:41.817Z,8.49
2019-03-27T03:03:41.789Z,8.47
2019-03-27T03:04:41.784Z,8.47
2019-03-27T03:05:41.768Z,8.50
2019-03-27T03:06:41.759Z,8.44
2019-03-27T03:07:41.743Z,8.29
2019-03-27T03:08:41.735Z,8.19
2019-03-27T03:09:41.721Z,8.24
2019-03-27T03:10:45.230Z,8.35
2019-03-27T03:11:41.707Z,8.26
2019-03-27T03:12:41.688Z,8.17
2019-03-27T03:13:41.679Z,8.28
2019-03-27T03:14:41.670Z,8.32
2019-03-27T03:15:41.657Z,8.34
2019-03-27T03:16:43.306Z,8.26
2019-03-27T03:17:41.636Z,8.23
2019-03-27T03:18:41.624Z,8.24
2019-03-27T03:19:41.609Z,8.28
2019-03-27T03:20:41.604Z,8.46
2019-03-27T03:21:41.591Z,8.49
2019-03-27T03:22:41.603Z,8.46
2019-03-27T03:23:41.647Z,8.29
2019-03-27T03:24:41.557Z,8.32
2019-03-27T03:25:41.544Z,8.41
2019-03-27T03:26:41.532Z,8.42
2019-03-27T03:27:41.521Z,8.32
2019-03-27T03:28:41.516Z,8.39
2019-03-27T03:29:41.499Z,8.44
2019-03-27T03:30:41.489Z,8.42
2019-03-27T03:31:41.480Z,8.34
2019-03-27T03:32:41.474Z,8.31
2019-03-27T03:33:41.485Z,8.47
2019-03-27T03:34:41.469Z,8.37
2019-03-27T03:35:41.441Z,8.32
2019-03-27T03:36:41.425Z,8.31
2019-03-27T03:37:41.417Z,8.23
2019-03-27T03:38:41.413Z,8.24
2019-03-27T03:39:41.394Z,8.23
2019-03-27T03:40:41.394Z,8.17
2019-03-27T03:41:41.409Z,8.17
2019-03-27T03:42:41.363Z,8.23
2019-03-27T03:43:41.348Z,8.23
2019-03-27T03:44:41.340Z,8.19
2019-03-27T03:45:41.324Z,8.24
2019-03-27T03:46:58.355Z,8.17
2019-03-27T03:47:42.307Z,8.06
2019-03-27T03:48:41.288Z,8.13
2019-03-27T03:49:41.277Z,8.06
2019-03-27T03:50:41.272Z,8.04
2019-03-27T03:51:41.276Z,8.09
2019-03-27T03:52:45.543Z,7.99
2019-03-27T03:53:41.239Z,8.06
2019-03-27T03:54:41.229Z,8.04
2019-03-27T03:55:41.220Z,8.19
2019-03-27T03:56:41.204Z,8.10
2019-03-27T03:57:41.189Z,8.09
2019-03-27T03:58:41.180Z,7.94
2019-03-27T03:59:41.168Z,7.91
2019-03-27T04:00:41.158Z,8.09
2019-03-27T04:01:41.146Z,8.24
2019-03-27T04:02:41.135Z,8.20
2019-03-27T04:03:41.136Z,8.21
2019-03-27T04:04:41.123Z,8.21
2019-03-27T04:05:41.105Z,8.12
2019-03-27T04:06:41.089Z,8.16
2019-03-27T04:07:41.079Z,8.05
2019-03-27T04:08:41.066Z,8.05
2019-03-27T04:09:41.054Z,8.13
2019-03-27T04:10:41.056Z,8.06
2019-03-27T04:11:41.116Z,8.01
2019-03-27T04:12:41.027Z,7.83
2019-03-27T04:13:41.080Z,7.84
2019-03-27T04:14:40.998Z,7.83
2019-03-27T04:15:41.010Z,7.95
2019-03-27T04:16:40.976Z,7.91
2019-03-27T04:17:40.964Z,7.92
2019-03-27T04:18:40.952Z,8.10
2019-03-27T04:19:40.947Z,8.19
2019-03-27T04:20:40.932Z,8.26
2019-03-27T04:21:40.921Z,8.23
2019-03-27T04:22:40.911Z,8.16
2019-03-27T04:23:40.900Z,8.17
2019-03-27T04:24:40.888Z,8.02
2019-03-27T04:26:07.217Z,8.01
2019-03-27T04:26:41.862Z,8.06
2019-03-27T04:27:40.862Z,8.06
2019-03-27T04:28:40.845Z,8.17
2019-03-27T04:29:40.833Z,8.14
2019-03-27T04:30:40.827Z,8.06
2019-03-27T04:31:40.807Z,8.17
2019-03-27T04:32:40.793Z,8.24
2019-03-27T04:33:40.800Z,8.06
2019-03-27T04:34:40.781Z,8.05
2019-03-27T04:35:40.762Z,8.01
2019-03-27T04:36:40.755Z,8.01
2019-03-27T04:37:40.742Z,8.02
2019-03-27T04:38:40.730Z,8.13
2019-03-27T04:39:40.721Z,8.05
2019-03-27T04:40:40.719Z,8.01
2019-03-27T04:41:40.701Z,8.09
2019-03-27T04:42:40.693Z,8.14
2019-03-27T04:43:40.682Z,8.10
2019-03-27T04:44:40.661Z,8.09
2019-03-27T04:45:40.654Z,8.23
2019-03-27T04:46:40.642Z,8.21
2019-03-27T04:47:40.639Z,8.21
2019-03-27T04:48:40.618Z,8.17
2019-03-27T04:49:40.603Z,8.12
2019-03-27T04:50:40.598Z,8.10
2019-03-27T04:51:40.584Z,8.13
2019-03-27T04:52:40.571Z,8.14
2019-03-27T04:53:40.561Z,8.17
2019-03-27T04:54:40.551Z,8.13
2019-03-27T04:55:40.539Z,8.10
2019-03-27T04:56:40.527Z,8.06
2019-03-27T04:57:40.520Z,8.05
2019-03-27T04:58:40.508Z,8.10
2019-03-27T04:59:40.502Z,8.10
2019-03-27T05:00:40.487Z,8.20
2019-03-27T05:01:40.469Z,8.21
2019-03-27T05:02:40.466Z,8.20
2019-03-27T05:03:40.471Z,8.13
2019-03-27T05:04:40.450Z,8.04
2019-03-27T05:05:40.431Z,7.99
2019-03-27T05:06:40.430Z,7.91
2019-03-27T05:07:40.405Z,7.88
2019-03-27T05:08:40.395Z,8.09
2019-03-27T05:09:40.383Z,8.09
2019-03-27T05:10:40.374Z,8.12
2019-03-27T05:11:40.365Z,8.06
2019-03-27T05:12:40.369Z,8.06
2019-03-27T05:13:40.342Z,8.12
2019-03-27T05:14:40.331Z,8.06
2019-03-27T05:15:40.314Z,8.19
2019-03-27T05:16:40.318Z,8.16
2019-03-27T05:17:46.351Z,8.17
2019-03-27T05:18:41.302Z,8.29
2019-03-27T05:19:40.311Z,8.29
2019-03-27T05:20:40.268Z,8.31
2019-03-27T05:21:40.254Z,8.35
2019-03-27T05:22:40.235Z,8.26
2019-03-27T05:23:40.224Z,8.20
2019-03-27T05:24:40.212Z,8.35
2019-03-27T05:25:40.203Z,8.24
2019-03-27T05:26:40.192Z,8.20
2019-03-27T05:27:40.185Z,8.37
2019-03-27T05:28:40.167Z,8.31
2019-03-27T05:29:40.164Z,8.38
2019-03-27T05:30:40.155Z,8.46
2019-03-27T05:31:40.131Z,8.34
2019-03-27T05:32:40.121Z,8.47
2019-03-27T05:33:40.112Z,8.41
2019-03-27T05:34:40.108Z,8.44
2019-03-27T05:35:40.089Z,8.47
2019-03-27T05:36:40.080Z,8.29
2019-03-27T05:37:40.070Z,8.29
2019-03-27T05:38:40.057Z,8.49
2019-03-27T05:39:40.062Z,8.59
2019-03-27T05:40:40.037Z,8.56
2019-03-27T05:41:40.024Z,8.55
2019-03-27T05:42:40.014Z,8.57
2019-03-27T05:43:40.015Z,9.14
2019-03-27T05:44:39.993Z,9.66
2019-03-27T05:45:39.982Z,10.30
2019-03-27T05:46:39.973Z,10.48
2019-03-27T05:47:39.974Z,10.60
2019-03-27T05:48:39.953Z,11.04
2019-03-27T05:49:39.958Z,10.68
2019-03-27T05:50:39.924Z,11.08
2019-03-27T05:51:39.916Z,11.52
2019-03-27T05:52:39.906Z,11.76
2019-03-27T05:53:39.898Z,11.30
2019-03-27T05:54:39.881Z,11.45
2019-03-27T05:55:39.874Z,11.41
2019-03-27T05:56:39.861Z,11.45
2019-03-27T05:57:39.851Z,11.09
2019-03-27T05:58:39.833Z,11.38
2019-03-27T05:59:39.831Z,11.28
2019-03-27T06:00:39.819Z,11.54
2019-03-27T06:01:39.803Z,12.00
2019-03-27T06:02:39.793Z,12.43
2019-03-27T06:03:39.780Z,12.29
2019-03-27T06:04:39.769Z,12.13
2019-03-27T06:05:39.764Z,12.00
2019-03-27T06:06:39.750Z,12.17
2019-03-27T06:07:39.918Z,11.95
2019-03-27T06:08:39.783Z,11.79
2019-03-27T06:09:39.740Z,12.18
2019-03-27T06:10:39.802Z,12.21
2019-03-27T06:11:39.724Z,12.30
2019-03-27T06:12:39.716Z,12.44
2019-03-27T06:13:39.825Z,12.40
2019-03-27T06:14:39.751Z,12.54
2019-03-27T06:15:39.792Z,12.40
2019-03-27T06:16:39.691Z,11.97
2019-03-27T06:17:39.710Z,12.00
2019-03-27T06:18:39.736Z,12.77
2019-03-27T06:19:39.682Z,13.38
2019-03-27T06:20:39.609Z,13.20
2019-03-27T06:21:40.251Z,13.20
2019-03-27T06:22:39.780Z,12.58
2019-03-27T06:23:39.794Z,12.91
2019-03-27T06:24:39.571Z,13.20
2019-03-27T06:25:39.544Z,13.65
2019-03-27T06:26:39.620Z,13.64
2019-03-27T06:27:39.516Z,13.19
2019-03-27T06:28:39.527Z,13.11
2019-03-27T06:29:39.522Z,13.32
2019-03-27T06:30:39.488Z,13.30
2019-03-27T06:31:39.471Z,13.16
2019-03-27T06:32:39.456Z,13.32
2019-03-27T06:33:39.445Z,13.51
2019-03-27T06:34:39.434Z,13.36
2019-03-27T06:35:39.429Z,13.73
2019-03-27T06:36:39.414Z,14.08
2019-03-27T06:37:39.409Z,13.83
2019-03-27T06:38:39.400Z,13.93
2019-03-27T06:39:39.386Z,13.79
2019-03-27T06:40:39.799Z,14.23
2019-03-27T06:41:39.361Z,14.28
2019-03-27T06:42:39.352Z,13.11
2019-03-27T06:43:39.336Z,12.77
2019-03-27T06:44:39.342Z,13.26
2019-03-27T06:45:39.319Z,13.26
2019-03-27T06:46:39.313Z,13.17
2019-03-27T06:47:39.296Z,14.22
2019-03-27T06:48:39.279Z,13.80
2019-03-27T06:49:39.271Z,13.78
2019-03-27T06:50:39.261Z,13.93
2019-03-27T06:51:40.470Z,13.85
2019-03-27T06:52:39.247Z,13.36
2019-03-27T06:53:39.225Z,12.77
2019-03-27T06:54:39.236Z,12.65
2019-03-27T06:55:39.200Z,13.11
2019-03-27T06:56:39.192Z,12.95
2019-03-27T06:57:39.186Z,12.98
2019-03-27T06:58:39.171Z,13.36
2019-03-27T06:59:39.158Z,14.23
2019-03-27T07:00:39.149Z,14.21
2019-03-27T07:01:39.134Z,13.65
2019-03-27T07:02:39.127Z,13.78
2019-03-27T07:03:39.141Z,12.83
2019-03-27T07:04:39.117Z,13.26
2019-03-27T07:05:39.094Z,13.82
2019-03-27T07:06:39.130Z,14.95
2019-03-27T07:07:39.073Z,15.50
2019-03-27T07:08:39.062Z,14.90
2019-03-27T07:09:42.279Z,16.02
2019-03-27T07:10:39.041Z,16.54
2019-03-27T07:11:39.040Z,16.76
2019-03-27T07:12:39.014Z,16.72
2019-03-27T07:13:39.011Z,16.64
2019-03-27T07:14:38.996Z,15.66
2019-03-27T07:15:38.987Z,15.38
2019-03-27T07:16:38.976Z,14.89
2019-03-27T07:17:38.990Z,14.45
2019-03-27T07:18:40.417Z,14.99
2019-03-27T07:19:38.939Z,15.99
2019-03-27T07:20:41.060Z,16.52
2019-03-27T07:21:38.926Z,15.99
2019-03-27T07:22:38.909Z,15.87
2019-03-27T07:23:38.918Z,15.58
2019-03-27T07:24:38.887Z,15.98
2019-03-27T07:25:38.871Z,15.76
2019-03-27T07:26:38.887Z,15.54
2019-03-27T07:27:38.876Z,15.88
2019-03-27T07:28:38.839Z,16.09
2019-03-27T07:29:38.823Z,15.66
2019-03-27T07:30:38.823Z,15.51
2019-03-27T07:31:38.804Z,14.49
2019-03-27T07:32:38.844Z,14.19
2019-03-27T07:33:38.782Z,14.22
2019-03-27T07:34:39.099Z,14.18
2019-03-27T07:35:38.779Z,13.68
2019-03-27T07:36:38.770Z,14.53
2019-03-27T07:37:38.739Z,15.04
2019-03-27T07:38:38.751Z,14.69
2019-03-27T07:39:38.717Z,14.89
2019-03-27T07:40:38.706Z,15.50
2019-03-27T07:41:38.746Z,15.56
2019-03-27T07:42:38.680Z,15.63
2019-03-27T07:43:38.673Z,15.22
2019-03-27T07:44:38.659Z,14.82
2019-03-27T07:45:38.651Z,15.68
2019-03-27T07:46:38.650Z,16.24
2019-03-27T07:47:38.624Z,16.03
2019-03-27T07:48:38.712Z,15.85
2019-03-27T07:49:38.636Z,15.23
2019-03-27T07:50:38.594Z,14.55
2019-03-27T07:51:38.584Z,14.22
2019-03-27T07:52:38.575Z,13.61
2019-03-27T07:54:47.636Z,14.28
2019-03-27T07:55:47.455Z,14.16
2019-03-27T07:57:18.040Z,14.28
2019-03-27T07:58:17.998Z,14.41
2019-03-27T07:59:49.814Z,13.98
2019-03-27T08:00:48.766Z,13.39
2019-03-27T08:02:19.167Z,13.40
2019-03-27T08:03:19.093Z,13.94
2019-03-27T08:04:19.089Z,13.76
2019-03-27T08:05:19.061Z,13.82
2019-03-27T08:06:19.075Z,13.51
2019-03-27T08:07:26.618Z,13.39
2019-03-27T08:08:20.053Z,13.38
2019-03-27T08:09:19.015Z,13.19
2019-03-27T08:10:19.010Z,13.40
2019-03-27T08:11:19.057Z,13.27
2019-03-27T08:12:18.985Z,13.72
2019-03-27T08:13:18.974Z,14.04
2019-03-27T08:14:19.559Z,13.94
2019-03-27T08:15:18.962Z,13.73
2019-03-27T08:16:18.939Z,13.49
2019-03-27T08:17:18.943Z,13.16
2019-03-27T08:18:18.926Z,13.23
2019-03-27T08:19:18.914Z,13.73
2019-03-27T08:20:18.895Z,13.24
2019-03-27T08:21:18.887Z,13.42
2019-03-27T08:22:18.872Z,13.36
2019-03-27T08:23:18.871Z,13.82
2019-03-27T08:24:18.858Z,14.11
2019-03-27T08:25:18.852Z,14.48
2019-03-27T08:26:18.859Z,14.59
2019-03-27T08:27:18.815Z,14.09
2019-03-27T08:28:18.803Z,13.83
2019-03-27T08:29:18.807Z,13.88
2019-03-27T08:30:18.785Z,14.34
2019-03-27T08:31:18.774Z,14.05
2019-03-27T08:32:18.819Z,14.40
2019-03-27T08:33:18.754Z,14.31
2019-03-27T08:34:18.744Z,14.82
2019-03-27T08:35:18.743Z,15.44
2019-03-27T08:36:18.719Z,15.80
2019-03-27T08:37:18.710Z,16.26
2019-03-27T08:38:18.700Z,15.48
2019-03-27T08:39:18.687Z,15.22
2019-03-27T08:40:18.676Z,15.68
2019-03-27T08:41:18.665Z,15.44
2019-03-27T08:42:18.656Z,15.15
2019-03-27T08:43:21.524Z,15.81
2019-03-27T08:44:18.630Z,16.97
2019-03-27T08:45:18.622Z,17.14
2019-03-27T08:46:18.620Z,17.94
2019-03-27T08:47:18.600Z,17.38
2019-03-27T08:48:18.644Z,15.98
2019-03-27T08:49:22.318Z,15.32
2019-03-27T08:50:18.560Z,15.48
2019-03-27T08:51:18.557Z,15.91
2019-03-27T08:52:18.541Z,16.06
2019-03-27T08:53:18.532Z,15.59
2019-03-27T08:54:18.520Z,15.36
2019-03-27T08:55:18.523Z,16.10
2019-03-27T08:56:18.500Z,16.98
2019-03-27T08:57:18.487Z,15.32
2019-03-27T08:58:18.479Z,15.69
2019-03-27T08:59:18.487Z,16.09
2019-03-27T09:00:21.286Z,16.54
2019-03-27T09:01:18.452Z,17.38
2019-03-27T09:02:18.436Z,16.70
2019-03-27T09:03:18.506Z,16.55
2019-03-27T09:04:18.469Z,16.97
2019-03-27T09:05:18.398Z,17.53
2019-03-27T09:06:18.497Z,18.42
2019-03-27T09:07:18.379Z,18.79
2019-03-27T09:08:18.392Z,18.17
2019-03-27T09:09:18.361Z,18.12
2019-03-27T09:10:18.349Z,18.03
2019-03-27T09:11:18.338Z,18.20
2019-03-27T09:12:18.331Z,18.03
2019-03-27T09:13:18.415Z,17.93
2019-03-27T09:14:18.313Z,18.03
2019-03-27T09:15:18.399Z,17.56
2019-03-27T09:16:18.392Z,17.09
2019-03-27T09:17:18.270Z,17.24
2019-03-27T09:18:18.361Z,17.38
2019-03-27T09:19:18.443Z,18.02
2019-03-27T09:20:18.298Z,16.98
2019-03-27T09:21:18.281Z,15.66
2019-03-27T09:22:18.248Z,14.97
2019-03-27T09:23:18.248Z,14.93
2019-03-27T09:24:18.234Z,14.37
2019-03-27T09:25:18.221Z,13.75
2019-03-27T09:26:18.201Z,13.29
2019-03-27T09:27:18.198Z,13.64
2019-03-27T09:28:18.298Z,13.88
2019-03-27T09:29:18.193Z,14.18
2019-03-27T09:30:18.140Z,13.86
2019-03-27T09:31:18.158Z,13.82
2019-03-27T09:32:18.120Z,13.93
2019-03-27T09:33:18.093Z,14.38
2019-03-27T09:34:18.088Z,14.83
2019-03-27T09:35:18.080Z,15.01
2019-03-27T09:36:18.069Z,15.11
2019-03-27T09:37:18.051Z,15.03
2019-03-27T09:38:18.051Z,14.87
2019-03-27T09:39:18.038Z,15.19
2019-03-27T09:40:18.058Z,15.25
2019-03-27T09:41:21.249Z,15.45
2019-03-27T09:42:18.005Z,15.88
2019-03-27T09:43:17.997Z,15.19
2019-03-27T09:44:17.977Z,14.79
2019-03-27T09:45:18.050Z,14.73
2019-03-27T09:46:17.993Z,15.04
2019-03-27T09:47:17.953Z,14.66
2019-03-27T09:48:18.027Z,14.66
2019-03-27T09:49:17.928Z,14.36
2019-03-27T09:50:17.915Z,14.12
2019-03-27T09:51:17.903Z,14.87
2019-03-27T09:52:17.899Z,15.35
2019-03-27T09:53:17.886Z,15.77
2019-03-27T09:54:17.870Z,16.26
2019-03-27T09:55:17.862Z,16.88
2019-03-27T09:56:19.338Z,16.97
2019-03-27T09:57:17.834Z,16.76
2019-03-27T09:58:17.840Z,16.00
2019-03-27T09:59:17.824Z,16.10
2019-03-27T10:00:17.805Z,16.36
2019-03-27T10:01:17.804Z,15.76
2019-03-27T10:02:17.784Z,15.50
2019-03-27T10:03:17.768Z,15.20
2019-03-27T10:04:17.761Z,15.48
2019-03-27T10:05:17.749Z,15.20
2019-03-27T10:06:17.736Z,14.37
2019-03-27T10:07:17.748Z,14.12
2019-03-27T10:08:17.714Z,14.44
2019-03-27T10:09:17.703Z,14.31
2019-03-27T10:10:17.697Z,14.30
2019-03-27T10:11:17.684Z,14.64
2019-03-27T10:12:17.672Z,14.97
2019-03-27T10:13:17.658Z,15.19
2019-03-27T10:14:17.658Z,15.32
2019-03-27T10:15:17.642Z,14.53
2019-03-27T10:16:17.631Z,14.49
2019-03-27T10:17:17.614Z,14.66
2019-03-27T10:18:17.628Z,14.40
2019-03-27T10:19:17.613Z,14.83
2019-03-27T10:20:17.692Z,15.38
2019-03-27T10:21:17.589Z,15.47
2019-03-27T10:22:17.562Z,15.87
2019-03-27T10:23:17.551Z,15.47
2019-03-27T10:24:17.567Z,14.67
2019-03-27T10:25:17.532Z,14.70
2019-03-27T10:26:17.535Z,15.69
2019-03-27T10:27:17.526Z,16.10
2019-03-27T10:28:17.506Z,16.37
2019-03-27T10:29:17.517Z,16.94
2019-03-27T10:30:17.475Z,17.91
2019-03-27T10:31:17.471Z,18.28
2019-03-27T10:32:17.454Z,17.63
2019-03-27T10:33:17.452Z,17.75
2019-03-27T10:34:17.429Z,18.21
2019-03-27T10:35:17.421Z,18.63
2019-03-27T10:36:17.434Z,17.47
2019-03-27T10:37:17.404Z,16.76
2019-03-27T10:38:17.465Z,17.31
2019-03-27T10:39:17.389Z,17.83
2019-03-27T10:40:17.377Z,17.35
2019-03-27T10:41:17.502Z,16.05
2019-03-27T10:42:17.355Z,16.69
2019-03-27T10:43:17.368Z,16.76
2019-03-27T10:44:17.660Z,16.82
2019-03-27T10:45:17.316Z,16.74
2019-03-27T10:46:17.304Z,16.16
2019-03-27T10:47:17.316Z,15.40
2019-03-27T10:48:17.281Z,15.73
2019-03-27T10:49:17.271Z,16.09
2019-03-27T10:50:18.163Z,16.21
2019-03-27T10:51:17.403Z,16.14
2019-03-27T10:52:17.252Z,15.07
2019-03-27T10:53:17.226Z,15.30
2019-03-27T10:54:17.217Z,15.30
2019-03-27T10:55:17.210Z,15.63
2019-03-27T10:56:17.257Z,15.68
2019-03-27T10:57:17.260Z,15.85
2019-03-27T10:58:17.194Z,16.51
2019-03-27T10:59:17.271Z,16.70
2019-03-27T11:00:17.297Z,16.49
2019-03-27T11:01:17.159Z,16.40
2019-03-27T11:02:17.154Z,16.61
2019-03-27T11:03:17.121Z,15.98
2019-03-27T11:04:17.107Z,17.09
2019-03-27T11:05:17.106Z,17.94
2019-03-27T11:06:17.093Z,18.31
2019-03-27T11:07:17.074Z,17.75
2019-03-27T11:08:17.065Z,18.28
2019-03-27T11:09:17.080Z,18.41
2019-03-27T11:10:17.058Z,18.23
2019-03-27T11:11:17.038Z,17.93
2019-03-27T11:12:17.026Z,17.34
2019-03-27T11:13:17.020Z,17.30
2019-03-27T11:14:17.061Z,17.34
2019-03-27T11:15:16.990Z,17.56
2019-03-27T11:16:16.990Z,18.27
2019-03-27T11:17:17.179Z,17.41
2019-03-27T11:18:16.960Z,17.47
2019-03-27T11:19:17.008Z,17.90
2019-03-27T11:20:29.947Z,16.70
2019-03-27T11:21:17.927Z,17.27
2019-03-27T11:22:16.948Z,17.34
2019-03-27T11:23:16.956Z,17.63
2019-03-27T11:24:16.900Z,17.12
2019-03-27T11:25:16.889Z,17.50
2019-03-27T11:26:16.882Z,18.27
2019-03-27T11:27:16.914Z,17.94
2019-03-27T11:28:16.904Z,17.37
2019-03-27T11:29:16.856Z,17.90
2019-03-27T11:30:16.853Z,18.30
2019-03-27T11:31:16.827Z,18.15
2019-03-27T11:32:16.814Z,18.58
2019-03-27T11:33:16.894Z,18.56
2019-03-27T11:34:16.834Z,18.09
2019-03-27T11:35:16.779Z,18.30
2019-03-27T11:36:16.774Z,19.32
2019-03-27T11:37:16.762Z,19.53
2019-03-27T11:38:16.956Z,19.50
2019-03-27T11:39:16.750Z,18.28
2019-03-27T11:40:16.725Z,18.71
2019-03-27T11:41:16.767Z,17.49
2019-03-27T11:42:16.713Z,18.03
2019-03-27T11:43:16.730Z,18.63
2019-03-27T11:44:16.735Z,18.39
2019-03-27T11:45:16.677Z,18.67
2019-03-27T11:46:16.666Z,19.49
2019-03-27T11:47:16.681Z,19.63
2019-03-27T11:48:16.725Z,20.29
2019-03-27T11:49:16.817Z,19.93
2019-03-27T11:50:16.789Z,19.04
2019-03-27T11:51:16.636Z,18.94
2019-03-27T11:52:16.609Z,19.68
2019-03-27T11:53:16.628Z,18.81
2019-03-27T11:54:16.632Z,18.63
2019-03-27T11:55:16.577Z,19.32
2019-03-27T11:56:16.628Z,20.29
2019-03-27T11:57:16.568Z,20.61
2019-03-27T11:58:16.740Z,19.20
2019-03-27T11:59:16.610Z,19.01
2019-03-27T12:00:16.541Z,17.86
2019-03-27T12:01:16.519Z,17.07
2019-03-27T12:02:16.704Z,17.30
2019-03-27T12:03:16.490Z,16.73
2019-03-27T12:04:16.482Z,17.04
2019-03-27T12:05:16.495Z,17.35
2019-03-27T12:06:16.495Z,17.12
2019-03-27T12:07:16.457Z,18.64
2019-03-27T12:08:16.500Z,18.54
2019-03-27T12:09:16.426Z,19.12
2019-03-27T12:10:16.420Z,19.53
2019-03-27T12:11:16.405Z,19.23
2019-03-27T12:12:16.394Z,18.79
2019-03-27T12:13:16.407Z,19.42
2019-03-27T12:14:16.386Z,18.54
2019-03-27T12:15:16.525Z,18.94
2019-03-27T12:16:16.427Z,18.33
2019-03-27T12:17:16.345Z,17.37
2019-03-27T12:18:16.355Z,18.38
2019-03-27T12:19:16.336Z,18.11
2019-03-27T12:20:16.333Z,18.60
2019-03-27T12:21:16.343Z,17.75
2019-03-27T12:22:16.377Z,15.88
2019-03-27T12:23:16.354Z,16.70
2019-03-27T12:24:16.286Z,17.34
2019-03-27T12:25:16.260Z,16.49
2019-03-27T12:26:16.253Z,16.77
2019-03-27T12:27:16.559Z,16.94
2019-03-27T12:28:16.256Z,17.24
2019-03-27T12:29:18.182Z,17.99
2019-03-27T12:30:16.298Z,18.39
2019-03-27T12:31:16.251Z,18.66
2019-03-27T12:32:16.326Z,18.34
2019-03-27T12:33:16.301Z,18.31
2019-03-27T12:34:16.272Z,17.54
2019-03-27T12:35:16.183Z,16.67
2019-03-27T12:36:16.142Z,16.32
2019-03-27T12:37:16.131Z,17.12
2019-03-27T12:38:16.132Z,18.26
2019-03-27T12:39:16.109Z,18.71
2019-03-27T12:40:16.142Z,18.63
2019-03-27T12:41:16.122Z,18.86
2019-03-27T12:42:16.214Z,19.44
2019-03-27T12:43:16.166Z,19.04
2019-03-27T12:44:16.071Z,19.01
2019-03-27T12:45:16.072Z,19.71
2019-03-27T12:46:16.161Z,18.81
2019-03-27T12:47:16.062Z,19.50
2019-03-27T12:48:16.106Z,19.74
2019-03-27T12:49:16.012Z,19.15
2019-03-27T12:50:16.072Z,19.93
2019-03-27T12:51:16.296Z,19.97
2019-03-27T12:52:16.128Z,18.67
2019-03-27T12:53:16.073Z,18.97
2019-03-27T12:54:15.964Z,19.23
2019-03-27T12:55:15.981Z,19.75
2019-03-27T12:56:15.948Z,19.94
2019-03-27T12:57:15.969Z,19.32
2019-03-27T12:58:15.914Z,19.20
2019-03-27T12:59:15.921Z,18.42
2019-03-27T13:00:15.988Z,19.19
2019-03-27T13:01:15.898Z,19.79
2019-03-27T13:02:16.097Z,20.14
2019-03-27T13:03:15.936Z,20.09
2019-03-27T13:04:15.874Z,18.81
2019-03-27T13:05:15.842Z,18.56
2019-03-27T13:06:15.905Z,18.66